Time;durP1;ratioP1;P1;durP2;ratioP2;P2;SDS_P1;SDS_P2;PMS_P1;PMS_P2;Temp;Humidity;BMP_temperature;BMP_pressure;BME280_temperature;BME280_humidity;BME280_pressure;Samples;Min_cycle;Max_cycle;Signal;HPM_P1;HPM_P2
2024/01/05 00:03:01;;;;;;;10.88;3.30;;;;;;;;;;8261738;28;20042;-58
2024/01/05 00:07:02;;;;;;;5.30;2.17;;;;;;;;;;8258173;28;20674;-57
2024/01/05 00:11:02;;;;;;;10.10;2.40;;;;;;;;;;8256696;28;20687;-57
2024/01/05 00:15:03;;;;;;;7.63;1.92;;;;;;;;;;8255911;28;20025;-58
2024/01/05 00:19:03;;;;;;;9.35;2.00;;;;;;;;;;8255479;28;20683;-59
2024/01/05 00:23:03;;;;;;;7.03;2.57;;;;;;;;;;8258643;28;20138;-58
2024/01/05 00:27:04;;;;;;;9.35;2.60;;;;;;;;;;8260841;28;20272;-58
2024/01/05 00:31:04;;;;;;;8.05;2.30;;;;;;;;;;8259035;28;20052;-58
2024/01/05 00:35:04;;;;;;;9.65;2.35;;;;;;;;;;8258873;28;20083;-59
2024/01/05 00:39:05;;;;;;;5.90;1.83;;;;;;;;;;8257753;28;20060;-58
2024/01/05 00:43:06;;;;;;;8.82;2.25;;;;;;;;;;8256676;28;20080;-59
2024/01/05 00:47:06;;;;;;;9.43;2.08;;;;;;;;;;8263421;28;20061;-57
2024/01/05 00:51:07;;;;;;;9.38;2.08;;;;;;;;;;8265980;28;20017;-58
2024/01/05 00:55:07;;;;;;;5.50;2.47;;;;;;;;;;8263086;28;20021;-57
2024/01/05 00:59:08;;;;;;;8.70;2.40;;;;;;;;;;8261991;28;20131;-57
2024/01/05 01:03:08;;;;;;;8.00;2.58;;;;;;;;;;8262280;28;20647;-58
2024/01/05 01:07:08;;;;;;;7.28;2.78;;;;;;;;;;8258648;28;20018;-58
2024/01/05 01:11:15;;;;;;;10.93;2.70;;;;;;;;;;8261240;28;20034;-58
2024/01/05 01:15:15;;;;;;;12.30;3.42;;;;;;;;;;8260199;28;20136;-57
2024/01/05 01:19:15;;;;;;;8.23;2.72;;;;;;;;;;8262146;28;20121;-57
2024/01/05 01:23:15;;;;;;;10.80;3.27;;;;;;;;;;8259831;28;20029;-56
2024/01/05 01:27:18;;;;;;;7.95;3.17;;;;;;;;;;8266341;28;20280;-59
2024/01/05 01:31:18;;;;;;;9.15;3.13;;;;;;;;;;8260975;28;20083;-56
2024/01/05 01:35:18;;;;;;;11.35;3.65;;;;;;;;;;8261463;28;20025;-57
2024/01/05 01:39:18;;;;;;;8.63;3.50;;;;;;;;;;8260325;28;20100;-58
2024/01/05 01:43:22;;;;;;;10.80;3.28;;;;;;;;;;8260475;28;20036;-57
2024/01/05 01:47:22;;;;;;;13.25;3.80;;;;;;;;;;8262202;28;20033;-56
2024/01/05 01:51:22;;;;;;;6.57;2.63;;;;;;;;;;8259145;28;20609;-57
2024/01/05 01:55:27;;;;;;;6.80;2.67;;;;;;;;;;8260980;28;20025;-58
2024/01/05 01:59:28;;;;;;;9.70;2.60;;;;;;;;;;8255425;28;20128;-57
2024/01/05 02:03:28;;;;;;;6.95;2.22;;;;;;;;;;8256480;28;20034;-58
2024/01/05 02:07:28;;;;;;;6.97;2.30;;;;;;;;;;8256749;28;20021;-58
2024/01/05 02:11:29;;;;;;;5.55;2.25;;;;;;;;;;8255843;28;21179;-58
2024/01/05 02:15:29;;;;;;;7.07;2.35;;;;;;;;;;8256417;28;21109;-59
2024/01/05 02:19:29;;;;;;;7.00;2.30;;;;;;;;;;8256521;28;20853;-58
2024/01/05 02:23:30;;;;;;;6.18;1.88;;;;;;;;;;8257190;28;20480;-58
2024/01/05 02:27:32;;;;;;;7.80;1.90;;;;;;;;;;8249487;28;20553;-55
2024/01/05 02:31:32;;;;;;;7.05;2.00;;;;;;;;;;8252823;28;20030;-58
2024/01/05 02:35:32;;;;;;;4.35;2.33;;;;;;;;;;8263641;28;20516;-57
2024/01/05 02:39:32;;;;;;;5.72;1.98;;;;;;;;;;8260641;28;20036;-58
2024/01/05 02:43:32;;;;;;;7.30;2.30;;;;;;;;;;8265048;28;20071;-58
2024/01/05 02:47:33;;;;;;;5.80;1.90;;;;;;;;;;8258620;28;20029;-58
2024/01/05 02:51:33;;;;;;;11.40;2.73;;;;;;;;;;8259024;28;20051;-58
2024/01/05 02:55:33;;;;;;;8.15;1.65;;;;;;;;;;8268278;28;20272;-58
2024/01/05 02:59:34;;;;;;;6.72;1.80;;;;;;;;;;8263641;28;20031;-58
2024/01/05 03:03:35;;;;;;;6.40;1.65;;;;;;;;;;8262052;28;20544;-57
2024/01/05 03:07:35;;;;;;;3.92;1.50;;;;;;;;;;8262125;28;20021;-57
2024/01/05 03:11:37;;;;;;;3.92;1.30;;;;;;;;;;8258214;28;20101;-57
2024/01/05 03:15:37;;;;;;;3.72;1.38;;;;;;;;;;8259317;28;20033;-57
2024/01/05 03:19:37;;;;;;;5.78;1.77;;;;;;;;;;8262557;28;20144;-57
2024/01/05 03:23:38;;;;;;;6.90;1.53;;;;;;;;;;8259177;28;20273;-57
2024/01/05 03:27:38;;;;;;;8.82;1.77;;;;;;;;;;8262750;28;20264;-58
2024/01/05 03:31:38;;;;;;;3.38;1.55;;;;;;;;;;8257645;28;20038;-57
2024/01/05 03:35:38;;;;;;;5.25;1.40;;;;;;;;;;8258509;28;20021;-57
2024/01/05 03:39:39;;;;;;;5.45;1.33;;;;;;;;;;8262958;28;20037;-57
2024/01/05 03:43:39;;;;;;;4.22;1.33;;;;;;;;;;8268194;28;20026;-58
2024/01/05 03:47:39;;;;;;;6.30;1.42;;;;;;;;;;8263179;28;20072;-59
2024/01/05 03:51:39;;;;;;;6.03;1.50;;;;;;;;;;8258317;28;20029;-58
2024/01/05 03:55:39;;;;;;;2.33;1.08;;;;;;;;;;8263007;28;20037;-58
2024/01/05 03:59:42;;;;;;;5.95;1.50;;;;;;;;;;8264323;28;20144;-59
2024/01/05 04:03:42;;;;;;;5.68;1.40;;;;;;;;;;8258857;28;20752;-59
2024/01/05 04:07:42;;;;;;;5.50;1.60;;;;;;;;;;8261825;28;20029;-59
2024/01/05 04:11:43;;;;;;;4.23;1.20;;;;;;;;;;8261310;28;20376;-57
2024/01/05 04:15:43;;;;;;;7.78;1.67;;;;;;;;;;8260599;28;20268;-58
2024/01/05 04:19:43;;;;;;;6.03;1.50;;;;;;;;;;8259289;28;20025;-57
2024/01/05 04:23:43;;;;;;;4.00;1.52;;;;;;;;;;8251227;28;20029;-57
2024/01/05 04:27:44;;;;;;;8.55;1.70;;;;;;;;;;8255948;28;20049;-57
2024/01/05 04:31:44;;;;;;;6.93;1.60;;;;;;;;;;8257808;28;20037;-57
2024/01/05 04:35:46;;;;;;;5.20;1.85;;;;;;;;;;8257207;28;20143;-57
2024/01/05 04:39:46;;;;;;;4.60;1.50;;;;;;;;;;8256667;28;20101;-57
2024/01/05 04:43:46;;;;;;;5.60;1.60;;;;;;;;;;8261970;28;20841;-56
2024/01/05 04:47:47;;;;;;;8.35;1.75;;;;;;;;;;8254311;28;20026;-57
2024/01/05 04:51:47;;;;;;;4.78;1.80;;;;;;;;;;8266133;28;20060;-57
2024/01/05 04:55:47;;;;;;;2.90;1.45;;;;;;;;;;8261471;28;20037;-57
2024/01/05 04:59:48;;;;;;;6.40;1.70;;;;;;;;;;8263947;28;20017;-57
2024/01/05 05:03:48;;;;;;;3.03;1.27;;;;;;;;;;8263101;28;20358;-57
2024/01/05 05:07:48;;;;;;;7.30;1.73;;;;;;;;;;8263345;28;20021;-55
2024/01/05 05:11:48;;;;;;;7.28;1.95;;;;;;;;;;8266355;28;20116;-56
2024/01/05 05:15:49;;;;;;;4.82;1.50;;;;;;;;;;8264322;28;20041;-57
2024/01/05 05:19:54;;;;;;;4.80;1.60;;;;;;;;;;8266561;28;20073;-58
2024/01/05 05:23:54;;;;;;;4.47;1.17;;;;;;;;;;8267819;28;20575;-58
2024/01/05 05:27:54;;;;;;;4.90;1.33;;;;;;;;;;8268466;28;20037;-56
2024/01/05 05:31:55;;;;;;;7.38;1.50;;;;;;;;;;8266965;28;20148;-56
2024/01/05 05:35:55;;;;;;;6.10;1.77;;;;;;;;;;8266016;28;20072;-57
2024/01/05 05:39:56;;;;;;;4.65;1.67;;;;;;;;;;8262984;28;20036;-55
2024/01/05 05:43:56;;;;;;;4.43;1.67;;;;;;;;;;8266194;28;20652;-56
2024/01/05 05:47:56;;;;;;;6.45;1.98;;;;;;;;;;8265521;28;20033;-56
2024/01/05 05:51:56;;;;;;;6.25;1.83;;;;;;;;;;8264384;28;20031;-58
2024/01/05 05:55:57;;;;;;;6.93;1.97;;;;;;;;;;8265876;28;20044;-57
2024/01/05 05:59:58;;;;;;;5.72;1.52;;;;;;;;;;8263504;28;20390;-57
2024/01/05 06:03:59;;;;;;;6.63;1.65;;;;;;;;;;8256589;28;20046;-58
2024/01/05 06:07:59;;;;;;;4.05;1.50;;;;;;;;;;8250911;28;20033;-57
2024/01/05 06:11:59;;;;;;;5.40;1.55;;;;;;;;;;8254624;28;20087;-57
2024/01/05 06:15:59;;;;;;;10.52;2.25;;;;;;;;;;8254708;28;20041;-56
2024/01/05 06:20:00;;;;;;;4.07;1.65;;;;;;;;;;8252417;28;20029;-57
2024/01/05 06:24:00;;;;;;;8.68;1.92;;;;;;;;;;8253222;28;20025;-57
2024/01/05 06:28:00;;;;;;;5.63;1.60;;;;;;;;;;8253516;28;20036;-58
2024/01/05 06:32:01;;;;;;;5.55;1.42;;;;;;;;;;8252624;28;20068;-57
2024/01/05 06:36:02;;;;;;;3.55;1.73;;;;;;;;;;8255005;28;20111;-57
2024/01/05 06:40:02;;;;;;;5.32;1.45;;;;;;;;;;8255931;28;20068;-58
2024/01/05 06:44:02;;;;;;;3.47;1.25;;;;;;;;;;8255815;28;20168;-58
2024/01/05 06:48:03;;;;;;;9.20;1.83;;;;;;;;;;8254820;28;20040;-59
2024/01/05 06:52:03;;;;;;;4.10;1.30;;;;;;;;;;8251081;28;20267;-58
2024/01/05 06:56:04;;;;;;;7.47;1.52;;;;;;;;;;8253463;28;20124;-59
2024/01/05 07:00:05;;;;;;;4.50;1.42;;;;;;;;;;8251275;28;20029;-59
2024/01/05 07:04:07;;;;;;;7.65;1.50;;;;;;;;;;8254468;28;20013;-60
2024/01/05 07:08:08;;;;;;;4.90;1.23;;;;;;;;;;8255295;28;20022;-59
2024/01/05 07:12:09;;;;;;;7.20;3.22;;;;;;;;;;8245624;28;20017;-58
2024/01/05 07:16:18;;;;;;;5.63;2.10;;;;;;;;;;8252901;28;20164;-57
2024/01/05 07:20:19;;;;;;;5.15;1.52;;;;;;;;;;8255448;28;20029;-58
2024/01/05 07:24:19;;;;;;;5.90;1.80;;;;;;;;;;8254576;28;20099;-58
2024/01/05 07:28:19;;;;;;;4.65;1.75;;;;;;;;;;8256820;28;20018;-58
2024/01/05 07:32:19;;;;;;;6.82;1.83;;;;;;;;;;8256920;28;20038;-58
2024/01/05 07:36:20;;;;;;;4.40;1.70;;;;;;;;;;8253079;28;20057;-57
2024/01/05 07:40:20;;;;;;;4.68;1.60;;;;;;;;;;8257893;28;20272;-58
2024/01/05 07:44:20;;;;;;;7.43;2.40;;;;;;;;;;8255945;28;20040;-58
2024/01/05 07:48:21;;;;;;;3.75;2.10;;;;;;;;;;8255306;28;20040;-58
2024/01/05 07:52:21;;;;;;;8.18;2.35;;;;;;;;;;8258859;28;20030;-57
2024/01/05 07:56:22;;;;;;;5.47;1.73;;;;;;;;;;8256781;28;20033;-57
2024/01/05 08:00:22;;;;;;;7.18;2.72;;;;;;;;;;8254561;28;20103;-57
2024/01/05 08:04:22;;;;;;;6.47;1.92;;;;;;;;;;8259177;28;20095;-57
2024/01/05 08:08:22;;;;;;;3.80;1.92;;;;;;;;;;8255531;28;20033;-58
2024/01/05 08:12:22;;;;;;;3.78;1.30;;;;;;;;;;8264629;28;20029;-58
2024/01/05 08:16:24;;;;;;;5.18;2.20;;;;;;;;;;8255701;28;20071;-58
2024/01/05 08:20:25;;;;;;;7.05;2.83;;;;;;;;;;8257302;28;21094;-59
2024/01/05 08:24:26;;;;;;;6.25;3.28;;;;;;;;;;8258230;28;20064;-59
2024/01/05 08:28:26;;;;;;;5.25;2.03;;;;;;;;;;8255844;28;20114;-58
2024/01/05 08:32:27;;;;;;;5.97;1.70;;;;;;;;;;8255508;28;20050;-58
2024/01/05 08:36:28;;;;;;;4.97;1.57;;;;;;;;;;8254856;28;20339;-57
2024/01/05 08:40:29;;;;;;;6.22;1.58;;;;;;;;;;8256664;28;20686;-56
2024/01/05 08:44:29;;;;;;;5.53;1.35;;;;;;;;;;8258007;28;20033;-58
2024/01/05 08:48:30;;;;;;;7.20;1.50;;;;;;;;;;8254522;28;21948;-58
2024/01/05 08:52:30;;;;;;;5.53;1.40;;;;;;;;;;8253192;28;20029;-57
2024/01/05 08:56:30;;;;;;;4.90;1.30;;;;;;;;;;8254829;28;20025;-58
2024/01/05 09:00:30;;;;;;;4.30;1.27;;;;;;;;;;8258537;28;20176;-58
2024/01/05 09:04:31;;;;;;;4.05;1.55;;;;;;;;;;8258656;28;20044;-58
2024/01/05 09:08:31;;;;;;;2.28;1.13;;;;;;;;;;8253996;28;20021;-58
2024/01/05 09:12:32;;;;;;;3.65;1.40;;;;;;;;;;8254305;28;20604;-58
2024/01/05 09:16:32;;;;;;;8.80;2.90;;;;;;;;;;8258767;28;20076;-58
2024/01/05 09:20:32;;;;;;;6.10;2.40;;;;;;;;;;8249389;28;20025;-56
2024/01/05 09:24:33;;;;;;;9.38;1.80;;;;;;;;;;8254317;28;20892;-57
2024/01/05 09:28:33;;;;;;;3.97;1.60;;;;;;;;;;8264730;28;20496;-57
2024/01/05 09:32:33;;;;;;;6.05;1.73;;;;;;;;;;8266612;28;20037;-58
2024/01/05 09:36:38;;;;;;;8.00;1.77;;;;;;;;;;8261292;28;20096;-57
2024/01/05 09:40:38;;;;;;;6.45;1.40;;;;;;;;;;8261066;28;20029;-59
2024/01/05 09:44:38;;;;;;;5.10;1.63;;;;;;;;;;8259885;28;20029;-59
2024/01/05 09:48:39;;;;;;;5.73;1.57;;;;;;;;;;8259469;28;20033;-59
2024/01/05 09:52:39;;;;;;;5.05;1.60;;;;;;;;;;8260044;28;20274;-59
2024/01/05 09:56:40;;;;;;;7.00;1.50;;;;;;;;;;8258583;28;20798;-59
2024/01/05 10:00:42;;;;;;;8.63;1.73;;;;;;;;;;8258993;28;20050;-60
2024/01/05 10:04:43;;;;;;;6.53;1.77;;;;;;;;;;8261138;28;20063;-59
2024/01/05 10:08:43;;;;;;;4.77;1.40;;;;;;;;;;8259320;28;20029;-60
2024/01/05 10:12:43;;;;;;;6.40;2.00;;;;;;;;;;8258222;28;20318;-58
2024/01/05 10:16:43;;;;;;;2.70;1.33;;;;;;;;;;8259163;28;20052;-59
2024/01/05 10:20:44;;;;;;;3.63;1.20;;;;;;;;;;8257315;28;20103;-59
2024/01/05 10:24:44;;;;;;;4.38;1.27;;;;;;;;;;8255026;28;20018;-59
2024/01/05 10:28:44;;;;;;;6.60;3.30;;;;;;;;;;8260246;28;20025;-59
2024/01/05 10:32:45;;;;;;;10.47;4.57;;;;;;;;;;8259993;28;20041;-59
2024/01/05 10:36:45;;;;;;;13.75;4.72;;;;;;;;;;8253170;28;20271;-58
2024/01/05 10:40:48;;;;;;;4.00;1.90;;;;;;;;;;8258597;28;20124;-59
2024/01/05 10:44:51;;;;;;;3.50;1.40;;;;;;;;;;8257446;28;20140;-59
2024/01/05 10:48:51;;;;;;;5.30;1.20;;;;;;;;;;8259849;28;20033;-60
2024/01/05 10:52:52;;;;;;;4.35;1.30;;;;;;;;;;8259068;28;20021;-58
2024/01/05 10:56:55;;;;;;;5.35;1.33;;;;;;;;;;8265909;28;20766;-59
2024/01/05 11:00:58;;;;;;;3.00;1.10;;;;;;;;;;8264824;28;20478;-59
2024/01/05 11:05:08;;;;;;;2.17;1.23;;;;;;;;;;8260631;28;20548;-59
2024/01/05 11:09:15;;;;;;;4.82;1.38;;;;;;;;;;8260204;28;20017;-58
2024/01/05 11:13:44;;;;;;;2.58;1.25;;;;;;;;;;8260811;28;20013;-59
2024/01/05 11:17:52;;;;;;;4.28;1.08;;;;;;;;;;8266296;28;20064;-58
2024/01/05 11:21:56;;;;;;;1.90;1.08;;;;;;;;;;8264203;28;20065;-58
2024/01/05 11:25:56;;;;;;;2.97;1.20;;;;;;;;;;8274639;28;20065;-60
2024/01/05 11:29:57;;;;;;;4.90;1.33;;;;;;;;;;8276549;28;20026;-58
2024/01/05 11:33:58;;;;;;;2.95;1.10;;;;;;;;;;8277545;28;20042;-58
2024/01/05 11:37:59;;;;;;;4.53;1.52;;;;;;;;;;8273897;28;20029;-59
2024/01/05 11:41:59;;;;;;;6.82;1.33;;;;;;;;;;8269221;28;20600;-58
2024/01/05 11:45:59;;;;;;;5.05;1.50;;;;;;;;;;8275265;28;20048;-57
2024/01/05 11:50:19;;;;;;;4.10;1.42;;;;;;;;;;8271477;28;20869;-58
2024/01/05 11:54:19;;;;;;;5.25;1.60;;;;;;;;;;8265127;28;20522;-59
2024/01/05 11:58:21;;;;;;;4.25;1.15;;;;;;;;;;8260382;28;20029;-59
2024/01/05 12:02:21;;;;;;;4.32;1.30;;;;;;;;;;8263522;28;20059;-58
2024/01/05 12:06:21;;;;;;;3.15;1.42;;;;;;;;;;8264557;28;20054;-59
2024/01/05 12:10:22;;;;;;;1.97;1.10;;;;;;;;;;8261976;28;20026;-59
2024/01/05 12:14:26;;;;;;;4.15;1.40;;;;;;;;;;8261895;28;20315;-59
2024/01/05 12:18:30;;;;;;;5.07;1.20;;;;;;;;;;8261297;28;20041;-59
2024/01/05 12:22:30;;;;;;;4.10;1.55;;;;;;;;;;8261648;28;20149;-59
2024/01/05 12:26:31;;;;;;;2.87;1.07;;;;;;;;;;8262859;28;20120;-59
2024/01/05 12:30:31;;;;;;;3.10;1.42;;;;;;;;;;8261040;28;20029;-57
2024/01/05 12:34:31;;;;;;;3.83;1.23;;;;;;;;;;8260574;28;20026;-57
2024/01/05 12:38:31;;;;;;;4.25;1.38;;;;;;;;;;8253778;28;20037;-57
2024/01/05 12:42:37;;;;;;;3.50;1.13;;;;;;;;;;8257582;28;20064;-58
2024/01/05 12:46:41;;;;;;;4.03;1.38;;;;;;;;;;8258089;28;20117;-57
2024/01/05 12:50:42;;;;;;;3.30;1.13;;;;;;;;;;8254149;28;20017;-58
2024/01/05 12:54:42;;;;;;;1.65;0.95;;;;;;;;;;8251549;28;20063;-57
2024/01/05 12:58:44;;;;;;;2.17;1.27;;;;;;;;;;8255069;28;20255;-58
2024/01/05 13:02:44;;;;;;;2.33;0.90;;;;;;;;;;8254479;28;20039;-58
2024/01/05 13:06:46;;;;;;;2.55;0.73;;;;;;;;;;8252045;28;20029;-58
2024/01/05 13:10:47;;;;;;;2.60;0.82;;;;;;;;;;8256759;28;20021;-58
2024/01/05 13:14:47;;;;;;;2.60;0.90;;;;;;;;;;8253684;28;20045;-60
2024/01/05 13:18:47;;;;;;;1.93;0.90;;;;;;;;;;8251280;28;20038;-60
2024/01/05 13:22:48;;;;;;;3.13;0.93;;;;;;;;;;8255895;28;20292;-61
2024/01/05 13:26:48;;;;;;;0.98;0.60;;;;;;;;;;8260179;28;20329;-59
2024/01/05 13:30:48;;;;;;;2.17;0.80;;;;;;;;;;8260369;28;20037;-64
2024/01/05 13:34:48;;;;;;;1.02;0.80;;;;;;;;;;8257404;28;20017;-60
2024/01/05 13:38:48;;;;;;;4.43;0.98;;;;;;;;;;8260625;28;20490;-60
2024/01/05 13:42:49;;;;;;;1.48;0.70;;;;;;;;;;8260264;28;20172;-59
2024/01/05 13:46:49;;;;;;;1.38;0.70;;;;;;;;;;8262794;28;20584;-58
2024/01/05 13:50:49;;;;;;;0.82;0.70;;;;;;;;;;8257290;28;20540;-57
2024/01/05 13:54:49;;;;;;;3.50;1.10;;;;;;;;;;8260057;28;20021;-56
2024/01/05 13:58:49;;;;;;;1.52;0.73;;;;;;;;;;8258973;28;20030;-59
2024/01/05 14:02:50;;;;;;;1.35;0.80;;;;;;;;;;8258348;28;20752;-59
2024/01/05 14:06:50;;;;;;;3.13;1.00;;;;;;;;;;8261818;28;20145;-60
2024/01/05 14:10:50;;;;;;;1.05;0.70;;;;;;;;;;8257407;28;20033;-60
2024/01/05 14:14:51;;;;;;;1.30;0.93;;;;;;;;;;8258500;28;20055;-59
2024/01/05 14:18:51;;;;;;;1.35;0.73;;;;;;;;;;8258719;28;20045;-58
2024/01/05 14:22:51;;;;;;;2.03;1.03;;;;;;;;;;8258977;28;20087;-58
2024/01/05 14:26:52;;;;;;;1.15;0.90;;;;;;;;;;8258828;28;20330;-59
2024/01/05 14:30:52;;;;;;;1.57;0.80;;;;;;;;;;8261551;28;20486;-58
2024/01/05 14:34:52;;;;;;;1.13;0.70;;;;;;;;;;8263335;28;20531;-58
2024/01/05 14:38:53;;;;;;;1.60;0.70;;;;;;;;;;8268811;28;20029;-58
2024/01/05 14:42:53;;;;;;;2.83;0.82;;;;;;;;;;8267673;28;20033;-59
2024/01/05 14:46:54;;;;;;;1.77;0.80;;;;;;;;;;8264728;28;20605;-58
2024/01/05 14:50:54;;;;;;;1.35;0.80;;;;;;;;;;8255463;28;20017;-59
2024/01/05 14:54:56;;;;;;;2.72;0.73;;;;;;;;;;8257586;28;20029;-59
2024/01/05 14:58:56;;;;;;;1.58;0.80;;;;;;;;;;8256603;28;20021;-59
2024/01/05 15:02:59;;;;;;;1.00;0.75;;;;;;;;;;8258918;28;20041;-59
2024/01/05 15:06:59;;;;;;;3.03;0.90;;;;;;;;;;8259124;28;20100;-64
2024/01/05 15:11:00;;;;;;;3.77;1.17;;;;;;;;;;8256833;28;20018;-58
2024/01/05 15:15:00;;;;;;;1.55;0.80;;;;;;;;;;8248423;28;20280;-59
2024/01/05 15:19:02;;;;;;;3.23;0.70;;;;;;;;;;8257503;28;20148;-59
2024/01/05 15:23:03;;;;;;;1.65;0.68;;;;;;;;;;8257729;28;20291;-57
2024/01/05 15:27:03;;;;;;;4.45;0.88;;;;;;;;;;8254706;28;20083;-57
2024/01/05 15:31:03;;;;;;;1.58;0.60;;;;;;;;;;8257407;28;20036;-57
2024/01/05 15:35:04;;;;;;;5.68;0.90;;;;;;;;;;8254649;28;20021;-57
2024/01/05 15:39:09;;;;;;;1.65;0.82;;;;;;;;;;8247162;28;20136;-58
2024/01/05 15:43:10;;;;;;;1.20;0.80;;;;;;;;;;8250718;28;20120;-58
2024/01/05 15:47:10;;;;;;;1.80;0.73;;;;;;;;;;8256128;28;20107;-58
2024/01/05 15:51:13;;;;;;;3.90;1.50;;;;;;;;;;8256613;28;20036;-58
2024/01/05 15:55:14;;;;;;;4.13;0.90;;;;;;;;;;8257735;28;20155;-58
2024/01/05 15:59:14;;;;;;;3.15;0.80;;;;;;;;;;8256190;28;20207;-58
2024/01/05 16:03:14;;;;;;;3.30;0.80;;;;;;;;;;8257020;28;20033;-58
2024/01/05 16:07:14;;;;;;;3.08;1.00;;;;;;;;;;8259179;28;20110;-58
2024/01/05 16:11:15;;;;;;;2.83;0.77;;;;;;;;;;8255604;28;20052;-58
2024/01/05 16:15:19;;;;;;;3.88;0.98;;;;;;;;;;8257463;28;20037;-58
2024/01/05 16:19:19;;;;;;;1.37;0.70;;;;;;;;;;8255524;28;20175;-57
2024/01/05 16:23:19;;;;;;;2.75;0.90;;;;;;;;;;8257423;28;20144;-58
2024/01/05 16:27:19;;;;;;;1.45;0.80;;;;;;;;;;8257357;28;20029;-57
2024/01/05 16:31:19;;;;;;;1.55;0.80;;;;;;;;;;8254053;28;20082;-58
2024/01/05 16:35:20;;;;;;;3.27;0.80;;;;;;;;;;8249220;28;20022;-57
2024/01/05 16:39:20;;;;;;;5.00;1.00;;;;;;;;;;8247929;28;20287;-60
2024/01/05 16:43:20;;;;;;;3.00;1.00;;;;;;;;;;8257240;28;20021;-58
2024/01/05 16:47:22;;;;;;;3.67;1.10;;;;;;;;;;8260570;28;20037;-59
2024/01/05 16:51:23;;;;;;;3.50;0.90;;;;;;;;;;8255840;28;20052;-58
2024/01/05 16:55:23;;;;;;;2.97;0.90;;;;;;;;;;8254584;28;20021;-59
2024/01/05 16:59:24;;;;;;;4.07;1.00;;;;;;;;;;8250502;28;20028;-58
2024/01/05 17:03:24;;;;;;;3.78;1.00;;;;;;;;;;8250791;28;20192;-58
2024/01/05 17:07:25;;;;;;;6.47;0.95;;;;;;;;;;8253511;28;20442;-59
2024/01/05 17:11:27;;;;;;;3.85;0.70;;;;;;;;;;8252749;28;20033;-59
2024/01/05 17:15:30;;;;;;;2.97;1.08;;;;;;;;;;8265234;28;22918;-58
2024/01/05 17:19:30;;;;;;;1.63;0.90;;;;;;;;;;8266955;28;20034;-58
2024/01/05 17:23:31;;;;;;;2.87;1.00;;;;;;;;;;8264652;28;20021;-57
2024/01/05 17:27:31;;;;;;;3.90;0.93;;;;;;;;;;8271912;28;20359;-58
2024/01/05 17:31:31;;;;;;;2.58;1.23;;;;;;;;;;8268991;28;20034;-57
2024/01/05 17:35:32;;;;;;;1.27;0.85;;;;;;;;;;8267035;28;20021;-59
2024/01/05 17:39:32;;;;;;;2.90;1.00;;;;;;;;;;8272179;28;20033;-58
2024/01/05 17:43:32;;;;;;;2.60;1.23;;;;;;;;;;8268344;28;20573;-59
2024/01/05 17:47:33;;;;;;;6.20;1.60;;;;;;;;;;8258444;28;20037;-58
2024/01/05 17:51:38;;;;;;;3.17;1.38;;;;;;;;;;8258260;28;20463;-59
2024/01/05 17:55:38;;;;;;;2.58;1.33;;;;;;;;;;8261628;28;20494;-59
2024/01/05 17:59:40;;;;;;;6.05;1.40;;;;;;;;;;8262249;28;20036;-57
2024/01/05 18:03:40;;;;;;;3.53;1.20;;;;;;;;;;8260505;28;20030;-58
2024/01/05 18:07:41;;;;;;;4.95;1.05;;;;;;;;;;8258810;28;20929;-57
2024/01/05 18:11:43;;;;;;;3.67;0.85;;;;;;;;;;8259483;28;20814;-57
2024/01/05 18:15:43;;;;;;;5.30;1.02;;;;;;;;;;8258349;28;20034;-60
2024/01/05 18:19:43;;;;;;;3.67;1.02;;;;;;;;;;8260264;28;20482;-58
2024/01/05 18:23:43;;;;;;;2.60;0.70;;;;;;;;;;8258337;28;20387;-58
2024/01/05 18:27:44;;;;;;;3.65;1.00;;;;;;;;;;8258974;28;20064;-58
2024/01/05 18:31:45;;;;;;;2.30;0.90;;;;;;;;;;8256625;28;20052;-58
2024/01/05 18:35:46;;;;;;;4.68;1.65;;;;;;;;;;8257572;28;20026;-58
2024/01/05 18:39:47;;;;;;;2.80;1.17;;;;;;;;;;8255941;28;20022;-58
2024/01/05 18:43:47;;;;;;;3.63;1.45;;;;;;;;;;8255658;28;20938;-59
2024/01/05 18:47:48;;;;;;;5.77;1.20;;;;;;;;;;8259350;28;20551;-58
2024/01/05 18:51:48;;;;;;;3.70;1.10;;;;;;;;;;8259027;28;20045;-58
2024/01/05 18:55:49;;;;;;;4.60;1.70;;;;;;;;;;8262669;28;20272;-58
2024/01/05 18:59:49;;;;;;;3.58;1.10;;;;;;;;;;8257859;28;20021;-58
2024/01/05 19:03:49;;;;;;;3.95;1.20;;;;;;;;;;8264337;28;20037;-58
2024/01/05 19:07:51;;;;;;;5.68;1.20;;;;;;;;;;8259345;28;20068;-58
2024/01/05 19:11:51;;;;;;;7.80;1.40;;;;;;;;;;8257988;28;20025;-58
2024/01/05 19:15:51;;;;;;;3.67;1.23;;;;;;;;;;8259466;28;20955;-58
2024/01/05 19:19:51;;;;;;;2.65;1.10;;;;;;;;;;8265815;28;20060;-58
2024/01/05 19:23:52;;;;;;;1.98;0.98;;;;;;;;;;8259449;28;20054;-59
2024/01/05 19:27:52;;;;;;;3.10;1.17;;;;;;;;;;8255208;28;20026;-59
2024/01/05 19:31:52;;;;;;;1.48;0.80;;;;;;;;;;8258042;28;20038;-58
2024/01/05 19:35:53;;;;;;;6.63;2.22;;;;;;;;;;8259110;28;20040;-59
2024/01/05 19:39:53;;;;;;;4.50;1.20;;;;;;;;;;8248774;28;20030;-59
2024/01/05 19:43:53;;;;;;;2.83;1.02;;;;;;;;;;8253723;28;20655;-58
2024/01/05 19:47:53;;;;;;;6.10;1.17;;;;;;;;;;8254300;28;20068;-59
2024/01/05 19:51:54;;;;;;;5.38;1.23;;;;;;;;;;8245575;28;20037;-59
2024/01/05 19:55:56;;;;;;;3.90;0.97;;;;;;;;;;8252147;28;20029;-58
2024/01/05 19:59:56;;;;;;;6.95;1.40;;;;;;;;;;8253086;28;20029;-59
2024/01/05 20:03:57;;;;;;;3.85;1.55;;;;;;;;;;8255637;28;20033;-58
2024/01/05 20:07:58;;;;;;;3.40;1.03;;;;;;;;;;8255729;28;20033;-58
2024/01/05 20:11:59;;;;;;;4.30;1.10;;;;;;;;;;8252638;28;21001;-58
2024/01/05 20:15:59;;;;;;;7.00;1.30;;;;;;;;;;8254993;28;20171;-58
2024/01/05 20:19:59;;;;;;;2.03;0.90;;;;;;;;;;8252326;28;20056;-58
2024/01/05 20:24:01;;;;;;;7.15;1.27;;;;;;;;;;8253919;28;20035;-59
2024/01/05 20:28:01;;;;;;;6.95;1.65;;;;;;;;;;8253261;28;20022;-58
2024/01/05 20:32:02;;;;;;;3.90;1.00;;;;;;;;;;8253990;28;21008;-58
2024/01/05 20:36:03;;;;;;;4.50;1.15;;;;;;;;;;8252572;28;20621;-59
2024/01/05 20:40:04;;;;;;;4.07;1.20;;;;;;;;;;8252548;28;20156;-58
2024/01/05 20:44:04;;;;;;;2.47;0.90;;;;;;;;;;8253881;28;20040;-58
2024/01/05 20:48:05;;;;;;;2.00;1.40;;;;;;;;;;8259708;28;20033;-57
2024/01/05 20:52:05;;;;;;;4.75;1.40;;;;;;;;;;8255126;28;20025;-58
2024/01/05 20:56:05;;;;;;;2.50;1.07;;;;;;;;;;8259945;28;20811;-58
2024/01/05 21:00:06;;;;;;;3.88;1.38;;;;;;;;;;8257251;28;20032;-58
2024/01/05 21:04:06;;;;;;;3.13;1.00;;;;;;;;;;8258242;28;20063;-58
2024/01/05 21:08:07;;;;;;;3.25;1.23;;;;;;;;;;8257577;28;21018;-57
2024/01/05 21:12:09;;;;;;;3.92;1.20;;;;;;;;;;8257627;28;20056;-58
2024/01/05 21:16:09;;;;;;;4.57;1.40;;;;;;;;;;8256436;28;20091;-58
2024/01/05 21:20:10;;;;;;;6.15;1.52;;;;;;;;;;8246502;28;20029;-57
2024/01/05 21:24:11;;;;;;;3.83;1.63;;;;;;;;;;8256738;28;20056;-58
2024/01/05 21:28:11;;;;;;;3.05;1.20;;;;;;;;;;8267061;28;20128;-58
2024/01/05 21:32:12;;;;;;;2.43;1.20;;;;;;;;;;8265696;28;20037;-57
2024/01/05 21:36:12;;;;;;;2.88;1.30;;;;;;;;;;8257007;28;20287;-58
2024/01/05 21:40:14;;;;;;;5.95;1.48;;;;;;;;;;8260875;28;20754;-59
2024/01/05 21:44:14;;;;;;;4.38;1.33;;;;;;;;;;8264985;28;20029;-59
2024/01/05 21:48:14;;;;;;;3.13;1.10;;;;;;;;;;8260225;28;21172;-58
2024/01/05 21:52:14;;;;;;;4.60;1.30;;;;;;;;;;8262129;28;20283;-59
2024/01/05 21:56:15;;;;;;;9.55;1.60;;;;;;;;;;8259739;28;20415;-58
2024/01/05 22:00:15;;;;;;;3.83;1.50;;;;;;;;;;8252087;28;20887;-58
2024/01/05 22:04:15;;;;;;;5.30;1.38;;;;;;;;;;8256510;28;20029;-58
2024/01/05 22:08:16;;;;;;;6.70;1.55;;;;;;;;;;8254078;28;20023;-58
2024/01/05 22:12:16;;;;;;;4.82;1.27;;;;;;;;;;8253562;28;20028;-58
2024/01/05 22:16:17;;;;;;;2.45;1.20;;;;;;;;;;8246241;28;20768;-57
2024/01/05 22:20:20;;;;;;;4.97;1.40;;;;;;;;;;8252007;28;20526;-58
2024/01/05 22:24:20;;;;;;;6.53;1.27;;;;;;;;;;8253523;28;20985;-59
2024/01/05 22:28:20;;;;;;;2.25;1.13;;;;;;;;;;8253601;28;20025;-60
2024/01/05 22:32:20;;;;;;;4.45;1.48;;;;;;;;;;8254621;28;20763;-59
2024/01/05 22:36:21;;;;;;;3.70;1.33;;;;;;;;;;8255835;28;20143;-59
2024/01/05 22:40:21;;;;;;;4.85;1.45;;;;;;;;;;8255095;28;20033;-59
2024/01/05 22:44:22;;;;;;;10.98;4.43;;;;;;;;;;8255453;28;20021;-59
2024/01/05 22:48:22;;;;;;;13.55;4.15;;;;;;;;;;8251663;28;20034;-60
2024/01/05 22:52:22;;;;;;;8.27;3.45;;;;;;;;;;8260560;28;20028;-59
2024/01/05 22:56:22;;;;;;;15.20;5.00;;;;;;;;;;8263377;28;20040;-60
2024/01/05 23:00:32;;;;;;;10.55;5.32;;;;;;;;;;8266236;28;21125;-60
2024/01/05 23:04:33;;;;;;;7.70;3.15;;;;;;;;;;8264779;28;20032;-59
2024/01/05 23:08:33;;;;;;;14.63;7.30;;;;;;;;;;8278434;28;20025;-58
2024/01/05 23:12:33;;;;;;;10.77;4.68;;;;;;;;;;8278970;28;20029;-58
2024/01/05 23:16:33;;;;;;;8.63;4.87;;;;;;;;;;8276699;28;20092;-60
2024/01/05 23:20:33;;;;;;;13.10;6.10;;;;;;;;;;8274695;28;20264;-59
2024/01/05 23:24:34;;;;;;;8.35;3.15;;;;;;;;;;8275138;28;20798;-58
2024/01/05 23:28:34;;;;;;;9.50;2.55;;;;;;;;;;8267119;28;20033;-58
2024/01/05 23:32:34;;;;;;;6.15;1.70;;;;;;;;;;8269403;28;20879;-59
2024/01/05 23:36:35;;;;;;;2.30;1.50;;;;;;;;;;8266531;28;20029;-59
2024/01/05 23:40:35;;;;;;;5.05;1.50;;;;;;;;;;8258380;28;20029;-57
2024/01/05 23:44:35;;;;;;;3.17;1.25;;;;;;;;;;8260556;28;20033;-59
2024/01/05 23:48:37;;;;;;;6.07;1.83;;;;;;;;;;8270662;28;20375;-59
2024/01/05 23:52:37;;;;;;;3.05;1.45;;;;;;;;;;8267997;28;20025;-59
2024/01/05 23:56:37;;;;;;;5.43;1.50;;;;;;;;;;8272912;28;20044;-58
